Newtown, Pennsylvania
Current Conditions -  °F | °C
As of 4:53 PM on Sunday 23 Nov 2014 (Local Time) from KTTN Reporting Station
Clear Clear  
Wind Chill: 50°   Ceiling: Unl
Heat Index: 50°   Visibility: 10mi
Dew Point: 25°   Wind: 5mph
Humidity: 38%   Direction: 180°S
Pressure: 30.11"   Gusts: NA
Location:  40.23°N, 74.94°W
Report Text: KTTN 232153Z 18004KT 10SM CLR 10/M04 A3011 RMK AO2 SLP192 T01001039
Loading
Personal Weather Stations






























Interactive Weather Map New forecast layout! Learn more

10-Day Weather Forecast

Advertisements
Track Severe Weather on mobile